Aviation Digital Data Service (ADDS)

Output produced by METARs form (2008 UTC 23 January 2019)
found at http://www.aviationweather.gov/metar/data/
 
Forecast for: MHLM (LA MESA/PEDRO S , HN)
Text: TAF MHLM 231625Z 2318/2418 03008KT 9999 FEW030 TX31/2321Z TN19/2412Z
Forecast period: 1800 to 2300 UTC 23 January 2019
Forecast type: FROM: standard forecast or significant change
Winds: from the NNE (30 degrees) at 9 MPH (8 knots; 4.1 m/s)
Visibility: 6 or more miles 10+ km)
Ceiling: at least 12,000 feet AGL
Clouds: few clouds at 3000 feet AGL
Weather: no significant weather forecast for this period
Text: BECMG 2323/2401 33006KT SCT028
Forecast period: 2300 UTC 23 January 2019 to 0400 UTC 24 January 2019
Forecast type: BECOMING: Conditions expected to become as follows by 0100 UTC 24 January 2019
Winds: from the NNW (330 degrees) at 7 MPH (6 knots; 3.1 m/s)
Visibility: 6 or more miles 10+ km)
Ceiling: at least 12,000 feet AGL
Clouds: scattered clouds at 2800 feet AGL
Weather: no significant weather forecast for this period
Text: BECMG 2404/2406 22004KT FEW025 SCT080
Forecast period: 0400 to 1800 UTC 24 January 2019
Forecast type: BECOMING: Conditions expected to become as follows by 0600 UTC 24 January 2019
Winds: from the SW (220 degrees) at 5 MPH (4 knots; 2.1 m/s)
Visibility: 6 or more miles 10+ km)
Ceiling: at least 12,000 feet AGL
Clouds: few clouds at 2500 feet AGL
scattered clouds at 8000 feet AGL
Weather: no significant weather forecast for this period